sensor_id;sensor_type;location;lat;lon;timestamp;pressure;altitude;pressure_sealevel;temperature;humidity
61394;BME280;48555;50.952;-0.120;2023-01-30T00:00:58;101757.09;;;10.50;77.12
61394;BME280;48555;50.952;-0.120;2023-01-30T00:03:25;101743.75;;;10.55;77.15
61394;BME280;48555;50.952;-0.120;2023-01-30T00:05:51;101745.25;;;10.59;76.81
61394;BME280;48555;50.952;-0.120;2023-01-30T00:08:17;101750.47;;;10.59;77.26
61394;BME280;48555;50.952;-0.120;2023-01-30T00:10:43;101759.38;;;10.56;77.40
61394;BME280;48555;50.952;-0.120;2023-01-30T00:13:09;101760.19;;;10.57;77.31
61394;BME280;48555;50.952;-0.120;2023-01-30T00:15:35;101750.59;;;10.57;77.19
61394;BME280;48555;50.952;-0.120;2023-01-30T00:18:01;101733.44;;;10.52;77.53
61394;BME280;48555;50.952;-0.120;2023-01-30T00:20:26;101743.84;;;10.53;77.58
61394;BME280;48555;50.952;-0.120;2023-01-30T00:22:52;101731.50;;;10.55;77.37
61394;BME280;48555;50.952;-0.120;2023-01-30T00:25:17;101732.09;;;10.60;77.44
61394;BME280;48555;50.952;-0.120;2023-01-30T00:27:42;101732.16;;;10.59;77.20
61394;BME280;48555;50.952;-0.120;2023-01-30T00:30:08;101719.03;;;10.60;77.60
61394;BME280;48555;50.952;-0.120;2023-01-30T00:32:34;101722.47;;;10.61;77.18
61394;BME280;48555;50.952;-0.120;2023-01-30T00:34:59;101710.22;;;10.61;77.01
61394;BME280;48555;50.952;-0.120;2023-01-30T00:37:25;101709.31;;;10.62;76.84
61394;BME280;48555;50.952;-0.120;2023-01-30T00:39:50;101692.09;;;10.58;76.65
61394;BME280;48555;50.952;-0.120;2023-01-30T00:42:15;101690.66;;;10.53;76.31
61394;BME280;48555;50.952;-0.120;2023-01-30T00:44:59;101690.28;;;10.44;76.27
61394;BME280;48555;50.952;-0.120;2023-01-30T00:47:43;101692.31;;;10.39;76.70
61394;BME280;48555;50.952;-0.120;2023-01-30T00:50:09;101697.78;;;10.35;76.54
61394;BME280;48555;50.952;-0.120;2023-01-30T00:52:34;101688.31;;;10.32;76.90
61394;BME280;48555;50.952;-0.120;2023-01-30T00:55:00;101694.59;;;10.30;77.09
61394;BME280;48555;50.952;-0.120;2023-01-30T00:57:25;101687.59;;;10.30;76.83
61394;BME280;48555;50.952;-0.120;2023-01-30T00:59:50;101696.75;;;10.37;77.15
61394;BME280;48555;50.952;-0.120;2023-01-30T01:02:16;101690.03;;;10.33;77.64
61394;BME280;48555;50.952;-0.120;2023-01-30T01:04:41;101706.56;;;10.34;77.59
61394;BME280;48555;50.952;-0.120;2023-01-30T01:07:10;101703.19;;;10.32;77.42
61394;BME280;48555;50.952;-0.120;2023-01-30T01:09:36;101718.63;;;10.36;77.42
61394;BME280;48555;50.952;-0.120;2023-01-30T01:12:02;101713.13;;;10.41;77.87
61394;BME280;48555;50.952;-0.120;2023-01-30T01:14:27;101705.97;;;10.44;77.60
61394;BME280;48555;50.952;-0.120;2023-01-30T01:16:53;101712.94;;;10.44;77.55
61394;BME280;48555;50.952;-0.120;2023-01-30T01:19:18;101701.66;;;10.43;77.28
61394;BME280;48555;50.952;-0.120;2023-01-30T01:21:43;101691.03;;;10.31;77.66
61394;BME280;48555;50.952;-0.120;2023-01-30T01:24:11;101714.16;;;10.38;77.30
61394;BME280;48555;50.952;-0.120;2023-01-30T01:26:37;101710.59;;;10.39;77.22
61394;BME280;48555;50.952;-0.120;2023-01-30T01:29:03;101714.91;;;10.40;77.08
61394;BME280;48555;50.952;-0.120;2023-01-30T01:31:28;101709.94;;;10.36;76.99
61394;BME280;48555;50.952;-0.120;2023-01-30T01:33:54;101706.50;;;10.35;77.26
61394;BME280;48555;50.952;-0.120;2023-01-30T01:36:19;101710.09;;;10.33;77.49
61394;BME280;48555;50.952;-0.120;2023-01-30T01:38:45;101703.00;;;10.35;77.43
61394;BME280;48555;50.952;-0.120;2023-01-30T01:41:12;101709.09;;;10.35;77.64
61394;BME280;48555;50.952;-0.120;2023-01-30T01:49:33;101699.13;;;10.42;78.23
61394;BME280;48555;50.952;-0.120;2023-01-30T01:54:30;101710.19;;;10.47;78.33
61394;BME280;48555;50.952;-0.120;2023-01-30T01:57:01;101707.47;;;10.49;78.32
61394;BME280;48555;50.952;-0.120;2023-01-30T01:59:34;101695.91;;;10.53;77.99
61394;BME280;48555;50.952;-0.120;2023-01-30T02:02:06;101693.97;;;10.56;77.82
61394;BME280;48555;50.952;-0.120;2023-01-30T02:04:33;101700.63;;;10.62;77.91
61394;BME280;48555;50.952;-0.120;2023-01-30T02:07:18;101702.50;;;10.60;77.71
61394;BME280;48555;50.952;-0.120;2023-01-30T02:09:46;101688.00;;;10.54;77.71
61394;BME280;48555;50.952;-0.120;2023-01-30T02:12:13;101687.03;;;10.55;77.52
61394;BME280;48555;50.952;-0.120;2023-01-30T02:14:39;101688.81;;;10.55;77.87
61394;BME280;48555;50.952;-0.120;2023-01-30T02:17:04;101690.78;;;10.51;77.73
61394;BME280;48555;50.952;-0.120;2023-01-30T02:22:48;101691.19;;;10.43;78.30
61394;BME280;48555;50.952;-0.120;2023-01-30T02:28:38;101682.09;;;10.51;78.15
61394;BME280;48555;50.952;-0.120;2023-01-30T02:47:20;101677.41;;;10.56;78.07
61394;BME280;48555;50.952;-0.120;2023-01-30T02:49:57;101677.53;;;10.54;78.33
61394;BME280;48555;50.952;-0.120;2023-01-30T02:52:26;101670.63;;;10.53;78.34
61394;BME280;48555;50.952;-0.120;2023-01-30T02:54:52;101662.84;;;10.52;78.24
61394;BME280;48555;50.952;-0.120;2023-01-30T02:57:20;101665.56;;;10.50;78.10
61394;BME280;48555;50.952;-0.120;2023-01-30T02:59:48;101660.66;;;10.44;78.20
61394;BME280;48555;50.952;-0.120;2023-01-30T03:05:30;101653.16;;;10.38;78.17
61394;BME280;48555;50.952;-0.120;2023-01-30T03:10:59;101648.09;;;10.35;77.86
61394;BME280;48555;50.952;-0.120;2023-01-30T03:15:58;101669.38;;;10.29;77.94
61394;BME280;48555;50.952;-0.120;2023-01-30T03:18:26;101662.59;;;10.24;78.25
61394;BME280;48555;50.952;-0.120;2023-01-30T03:20:53;101672.22;;;10.24;78.32
61394;BME280;48555;50.952;-0.120;2023-01-30T03:23:19;101680.97;;;10.23;78.44
61394;BME280;48555;50.952;-0.120;2023-01-30T03:25:45;101678.34;;;10.23;78.50
61394;BME280;48555;50.952;-0.120;2023-01-30T03:28:13;101679.13;;;10.25;78.91
61394;BME280;48555;50.952;-0.120;2023-01-30T03:30:40;101674.81;;;10.24;79.07
61394;BME280;48555;50.952;-0.120;2023-01-30T03:33:06;101679.13;;;10.25;79.23
61394;BME280;48555;50.952;-0.120;2023-01-30T03:35:31;101675.66;;;10.24;79.55
61394;BME280;48555;50.952;-0.120;2023-01-30T03:37:57;101677.63;;;10.21;79.78
61394;BME280;48555;50.952;-0.120;2023-01-30T03:40:23;101673.13;;;10.23;79.90
61394;BME280;48555;50.952;-0.120;2023-01-30T03:42:48;101685.81;;;10.31;80.13
61394;BME280;48555;50.952;-0.120;2023-01-30T03:45:14;101691.72;;;10.34;80.03
61394;BME280;48555;50.952;-0.120;2023-01-30T03:47:39;101694.09;;;10.39;79.74
61394;BME280;48555;50.952;-0.120;2023-01-30T03:50:05;101695.69;;;10.41;79.65
61394;BME280;48555;50.952;-0.120;2023-01-30T03:52:33;101696.41;;;10.43;79.59
61394;BME280;48555;50.952;-0.120;2023-01-30T03:54:58;101702.50;;;10.44;79.81
61394;BME280;48555;50.952;-0.120;2023-01-30T03:57:24;101694.81;;;10.41;79.76
61394;BME280;48555;50.952;-0.120;2023-01-30T03:59:49;101700.03;;;10.41;79.68
61394;BME280;48555;50.952;-0.120;2023-01-30T04:02:14;101701.09;;;10.38;79.88
61394;BME280;48555;50.952;-0.120;2023-01-30T04:04:44;101700.97;;;10.40;80.13
61394;BME280;48555;50.952;-0.120;2023-01-30T04:07:10;101700.16;;;10.39;80.14
61394;BME280;48555;50.952;-0.120;2023-01-30T04:09:35;101701.81;;;10.40;80.38
61394;BME280;48555;50.952;-0.120;2023-01-30T04:12:00;101696.53;;;10.42;80.14
61394;BME280;48555;50.952;-0.120;2023-01-30T04:14:26;101694.56;;;10.45;80.11
61394;BME280;48555;50.952;-0.120;2023-01-30T04:16:51;101675.91;;;10.52;80.25
61394;BME280;48555;50.952;-0.120;2023-01-30T04:19:16;101674.91;;;10.54;80.27
61394;BME280;48555;50.952;-0.120;2023-01-30T04:21:42;101680.97;;;10.55;80.17
61394;BME280;48555;50.952;-0.120;2023-01-30T04:24:07;101681.09;;;10.53;80.09
61394;BME280;48555;50.952;-0.120;2023-01-30T04:26:32;101687.88;;;10.56;80.20
61394;BME280;48555;50.952;-0.120;2023-01-30T04:28:58;101691.38;;;10.56;80.32
61394;BME280;48555;50.952;-0.120;2023-01-30T04:31:23;101691.19;;;10.59;80.31
61394;BME280;48555;50.952;-0.120;2023-01-30T04:33:48;101697.94;;;10.63;80.30
61394;BME280;48555;50.952;-0.120;2023-01-30T04:36:14;101690.75;;;10.67;80.14
61394;BME280;48555;50.952;-0.120;2023-01-30T04:38:39;101705.41;;;10.69;80.27
61394;BME280;48555;50.952;-0.120;2023-01-30T04:41:05;101700.28;;;10.68;80.13
61394;BME280;48555;50.952;-0.120;2023-01-30T04:43:30;101696.81;;;10.67;80.32
61394;BME280;48555;50.952;-0.120;2023-01-30T04:45:56;101697.41;;;10.73;80.21
61394;BME280;48555;50.952;-0.120;2023-01-30T04:48:23;101699.00;;;10.75;80.43
61394;BME280;48555;50.952;-0.120;2023-01-30T04:50:50;101701.53;;;10.77;80.36
61394;BME280;48555;50.952;-0.120;2023-01-30T04:53:17;101710.13;;;10.79;80.33
61394;BME280;48555;50.952;-0.120;2023-01-30T04:55:43;101703.03;;;10.81;80.18
61394;BME280;48555;50.952;-0.120;2023-01-30T04:58:08;101695.25;;;10.79;80.23
61394;BME280;48555;50.952;-0.120;2023-01-30T05:00:34;101710.63;;;10.85;79.83
61394;BME280;48555;50.952;-0.120;2023-01-30T05:02:59;101700.06;;;10.87;79.93
61394;BME280;48555;50.952;-0.120;2023-01-30T05:05:26;101707.25;;;10.83;79.97
61394;BME280;48555;50.952;-0.120;2023-01-30T05:07:52;101714.53;;;10.78;80.01
61394;BME280;48555;50.952;-0.120;2023-01-30T05:10:18;101709.38;;;10.77;79.70
61394;BME280;48555;50.952;-0.120;2023-01-30T05:12:44;101702.28;;;10.79;79.49
61394;BME280;48555;50.952;-0.120;2023-01-30T05:15:11;101709.28;;;10.78;79.42
61394;BME280;48555;50.952;-0.120;2023-01-30T05:17:37;101707.78;;;10.74;79.33
61394;BME280;48555;50.952;-0.120;2023-01-30T05:20:03;101718.50;;;10.69;79.54
61394;BME280;48555;50.952;-0.120;2023-01-30T05:22:29;101721.28;;;10.66;79.54
61394;BME280;48555;50.952;-0.120;2023-01-30T05:24:54;101726.63;;;10.65;80.01
61394;BME280;48555;50.952;-0.120;2023-01-30T05:27:20;101737.16;;;10.63;79.77
61394;BME280;48555;50.952;-0.120;2023-01-30T05:29:45;101738.84;;;10.64;79.91
61394;BME280;48555;50.952;-0.120;2023-01-30T05:32:14;101737.94;;;10.65;79.77
61394;BME280;48555;50.952;-0.120;2023-01-30T05:34:41;101734.53;;;10.63;80.20
61394;BME280;48555;50.952;-0.120;2023-01-30T05:37:06;101726.78;;;10.62;80.34
61394;BME280;48555;50.952;-0.120;2023-01-30T05:39:31;101728.28;;;10.66;80.42
61394;BME280;48555;50.952;-0.120;2023-01-30T05:41:57;101726.53;;;10.66;80.15
61394;BME280;48555;50.952;-0.120;2023-01-30T05:44:22;101732.41;;;10.70;80.25
61394;BME280;48555;50.952;-0.120;2023-01-30T05:46:48;101738.75;;;10.66;80.08
61394;BME280;48555;50.952;-0.120;2023-01-30T05:49:14;101735.38;;;10.64;80.18
61394;BME280;48555;50.952;-0.120;2023-01-30T05:51:39;101739.00;;;10.61;80.25
61394;BME280;48555;50.952;-0.120;2023-01-30T05:54:04;101731.25;;;10.60;79.98
61394;BME280;48555;50.952;-0.120;2023-01-30T05:56:30;101723.66;;;10.55;80.11
61394;BME280;48555;50.952;-0.120;2023-01-30T05:58:59;101718.69;;;10.51;80.05
61394;BME280;48555;50.952;-0.120;2023-01-30T06:01:25;101727.28;;;10.53;80.47
61394;BME280;48555;50.952;-0.120;2023-01-30T06:03:51;101716.16;;;10.49;80.53
61394;BME280;48555;50.952;-0.120;2023-01-30T06:06:17;101715.50;;;10.45;81.06
61394;BME280;48555;50.952;-0.120;2023-01-30T06:08:44;101720.47;;;10.50;81.41
61394;BME280;48555;50.952;-0.120;2023-01-30T06:11:11;101726.53;;;10.51;81.28
61394;BME280;48555;50.952;-0.120;2023-01-30T06:13:37;101719.38;;;10.54;81.50
61394;BME280;48555;50.952;-0.120;2023-01-30T06:16:04;101724.66;;;10.53;81.16
61394;BME280;48555;50.952;-0.120;2023-01-30T06:18:29;101734.28;;;10.52;81.58
61394;BME280;48555;50.952;-0.120;2023-01-30T06:20:55;101726.53;;;10.51;81.52
61394;BME280;48555;50.952;-0.120;2023-01-30T06:23:20;101728.41;;;10.49;81.52
61394;BME280;48555;50.952;-0.120;2023-01-30T06:25:48;101732.84;;;10.46;81.48
61394;BME280;48555;50.952;-0.120;2023-01-30T06:28:15;101727.97;;;10.40;81.37
61394;BME280;48555;50.952;-0.120;2023-01-30T06:30:41;101732.38;;;10.40;81.39
61394;BME280;48555;50.952;-0.120;2023-01-30T06:33:07;101737.69;;;10.38;81.32
61394;BME280;48555;50.952;-0.120;2023-01-30T06:35:32;101728.59;;;10.30;81.88
61394;BME280;48555;50.952;-0.120;2023-01-30T06:37:58;101737.47;;;10.26;81.90
61394;BME280;48555;50.952;-0.120;2023-01-30T06:40:23;101742.19;;;10.19;82.11
61394;BME280;48555;50.952;-0.120;2023-01-30T06:42:48;101752.13;;;10.12;82.41
61394;BME280;48555;50.952;-0.120;2023-01-30T06:45:16;101758.44;;;10.08;82.58
61394;BME280;48555;50.952;-0.120;2023-01-30T06:47:52;101769.22;;;10.02;82.63
61394;BME280;48555;50.952;-0.120;2023-01-30T06:50:21;101769.47;;;9.97;82.38
61394;BME280;48555;50.952;-0.120;2023-01-30T06:52:48;101774.00;;;9.94;83.04
61394;BME280;48555;50.952;-0.120;2023-01-30T06:55:16;101776.03;;;9.89;82.92
61394;BME280;48555;50.952;-0.120;2023-01-30T06:57:42;101791.38;;;9.95;82.91
61394;BME280;48555;50.952;-0.120;2023-01-30T07:00:14;101791.22;;;9.98;82.77
61394;BME280;48555;50.952;-0.120;2023-01-30T07:02:40;101796.19;;;10.02;82.68
61394;BME280;48555;50.952;-0.120;2023-01-30T07:05:07;101805.81;;;10.02;82.48
61394;BME280;48555;50.952;-0.120;2023-01-30T07:07:33;101812.81;;;10.01;82.57
61394;BME280;48555;50.952;-0.120;2023-01-30T07:09:58;101806.91;;;9.98;82.81
61394;BME280;48555;50.952;-0.120;2023-01-30T07:12:25;101820.88;;;9.97;83.04
61394;BME280;48555;50.952;-0.120;2023-01-30T07:14:52;101824.66;;;9.91;83.29
61394;BME280;48555;50.952;-0.120;2023-01-30T07:17:18;101836.19;;;9.87;83.27
61394;BME280;48555;50.952;-0.120;2023-01-30T07:19:43;101846.72;;;9.86;83.34
61394;BME280;48555;50.952;-0.120;2023-01-30T07:22:09;101845.09;;;9.83;83.42
61394;BME280;48555;50.952;-0.120;2023-01-30T07:24:35;101841.88;;;9.78;83.48
61394;BME280;48555;50.952;-0.120;2023-01-30T07:27:00;101836.88;;;9.73;83.64
61394;BME280;48555;50.952;-0.120;2023-01-30T07:29:26;101847.63;;;9.67;83.75
61394;BME280;48555;50.952;-0.120;2023-01-30T07:31:51;101854.94;;;9.61;84.00
61394;BME280;48555;50.952;-0.120;2023-01-30T07:34:16;101851.00;;;9.52;84.31
61394;BME280;48555;50.952;-0.120;2023-01-30T07:36:42;101870.28;;;9.49;84.57
61394;BME280;48555;50.952;-0.120;2023-01-30T07:39:07;101867.97;;;9.43;84.86
61394;BME280;48555;50.952;-0.120;2023-01-30T07:41:34;101869.75;;;9.43;84.67
61394;BME280;48555;50.952;-0.120;2023-01-30T07:44:00;101883.88;;;9.39;84.73
61394;BME280;48555;50.952;-0.120;2023-01-30T07:46:25;101889.41;;;9.32;84.93
61394;BME280;48555;50.952;-0.120;2023-01-30T07:48:51;101893.00;;;9.30;84.98
61394;BME280;48555;50.952;-0.120;2023-01-30T07:51:16;101895.97;;;9.22;84.73
61394;BME280;48555;50.952;-0.120;2023-01-30T07:53:41;101903.88;;;9.21;84.39
61394;BME280;48555;50.952;-0.120;2023-01-30T07:56:08;101904.72;;;9.21;84.53
61394;BME280;48555;50.952;-0.120;2023-01-30T07:58:33;101906.41;;;9.22;84.02
61394;BME280;48555;50.952;-0.120;2023-01-30T08:00:59;101913.94;;;9.28;83.72
61394;BME280;48555;50.952;-0.120;2023-01-30T08:03:24;101905.81;;;9.35;83.16
61394;BME280;48555;50.952;-0.120;2023-01-30T08:05:50;101901.84;;;9.45;83.12
61394;BME280;48555;50.952;-0.120;2023-01-30T08:08:15;101910.91;;;9.55;82.08
61394;BME280;48555;50.952;-0.120;2023-01-30T08:10:41;101914.06;;;9.62;81.68
61394;BME280;48555;50.952;-0.120;2023-01-30T08:13:07;101925.16;;;9.67;81.13
61394;BME280;48555;50.952;-0.120;2023-01-30T08:15:32;101925.25;;;9.65;80.36
61394;BME280;48555;50.952;-0.120;2023-01-30T08:17:58;101922.47;;;9.68;79.65
61394;BME280;48555;50.952;-0.120;2023-01-30T08:20:24;101909.03;;;9.93;79.40
61394;BME280;48555;50.952;-0.120;2023-01-30T08:22:50;101925.66;;;10.27;78.45
61394;BME280;48555;50.952;-0.120;2023-01-30T08:25:15;101922.63;;;10.35;77.39
61394;BME280;48555;50.952;-0.120;2023-01-30T08:27:41;101921.09;;;10.31;77.05
61394;BME280;48555;50.952;-0.120;2023-01-30T08:30:07;101916.22;;;10.23;76.51
61394;BME280;48555;50.952;-0.120;2023-01-30T08:32:33;101913.94;;;10.17;76.41
61394;BME280;48555;50.952;-0.120;2023-01-30T08:34:58;101902.88;;;10.12;75.90
61394;BME280;48555;50.952;-0.120;2023-01-30T08:37:24;101888.81;;;9.97;75.98
61394;BME280;48555;50.952;-0.120;2023-01-30T08:39:49;101916.00;;;10.10;75.24
61394;BME280;48555;50.952;-0.120;2023-01-30T08:42:14;101929.38;;;10.21;74.97
61394;BME280;48555;50.952;-0.120;2023-01-30T08:44:40;101924.84;;;10.42;74.64
61394;BME280;48555;50.952;-0.120;2023-01-30T08:47:05;101937.28;;;10.55;73.93
61394;BME280;48555;50.952;-0.120;2023-01-30T08:49:30;101940.16;;;10.50;72.96
61394;BME280;48555;50.952;-0.120;2023-01-30T08:51:56;101936.25;;;10.41;72.36
61394;BME280;48555;50.952;-0.120;2023-01-30T08:54:21;101942.09;;;10.29;72.12
61394;BME280;48555;50.952;-0.120;2023-01-30T08:56:46;101942.69;;;10.17;71.86
61394;BME280;48555;50.952;-0.120;2023-01-30T08:59:12;101948.38;;;10.08;71.43
61394;BME280;48555;50.952;-0.120;2023-01-30T09:01:37;101961.44;;;9.90;70.44
61394;BME280;48555;50.952;-0.120;2023-01-30T09:04:03;101980.25;;;9.80;70.13
61394;BME280;48555;50.952;-0.120;2023-01-30T09:06:28;101976.34;;;9.71;70.22
61394;BME280;48555;50.952;-0.120;2023-01-30T09:08:54;101994.34;;;9.58;69.47
61394;BME280;48555;50.952;-0.120;2023-01-30T09:11:19;101993.00;;;9.49;69.78
61394;BME280;48555;50.952;-0.120;2023-01-30T09:13:44;101997.25;;;9.52;69.92
61394;BME280;48555;50.952;-0.120;2023-01-30T09:16:11;101997.25;;;9.52;69.92
61394;BME280;48555;50.952;-0.120;2023-01-30T09:18:40;102002.41;;;9.53;69.75
61394;BME280;48555;50.952;-0.120;2023-01-30T09:21:07;101999.78;;;9.53;69.80
61394;BME280;48555;50.952;-0.120;2023-01-30T09:23:33;102001.63;;;9.51;69.62
61394;BME280;48555;50.952;-0.120;2023-01-30T09:25:58;101997.47;;;9.47;69.92
61394;BME280;48555;50.952;-0.120;2023-01-30T09:28:25;101998.88;;;9.54;69.90
61394;BME280;48555;50.952;-0.120;2023-01-30T09:30:50;102008.19;;;9.60;70.11
61394;BME280;48555;50.952;-0.120;2023-01-30T09:33:15;102008.97;;;9.62;69.98
61394;BME280;48555;50.952;-0.120;2023-01-30T09:35:48;102002.81;;;9.63;69.97
61394;BME280;48555;50.952;-0.120;2023-01-30T09:38:15;101986.84;;;9.69;69.43
61394;BME280;48555;50.952;-0.120;2023-01-30T09:41:18;101996.09;;;9.76;69.11
61394;BME280;48555;50.952;-0.120;2023-01-30T09:53:01;102002.78;;;10.36;67.87
61394;BME280;48555;50.952;-0.120;2023-01-30T09:55:32;102011.75;;;10.48;67.66
61394;BME280;48555;50.952;-0.120;2023-01-30T09:58:01;102022.66;;;10.56;67.39
61394;BME280;48555;50.952;-0.120;2023-01-30T10:00:37;102029.19;;;10.64;67.36
61394;BME280;48555;50.952;-0.120;2023-01-30T10:03:17;102030.28;;;10.60;65.20
61394;BME280;48555;50.952;-0.120;2023-01-30T10:05:48;102028.03;;;10.70;65.44
61394;BME280;48555;50.952;-0.120;2023-01-30T10:22:37;102045.41;;;10.88;64.18
61394;BME280;48555;50.952;-0.120;2023-01-30T10:28:17;102042.16;;;11.01;63.01
61394;BME280;48555;50.952;-0.120;2023-01-30T10:30:48;102053.13;;;11.07;62.93
61394;BME280;48555;50.952;-0.120;2023-01-30T10:33:22;102060.66;;;11.13;62.82
61394;BME280;48555;50.952;-0.120;2023-01-30T10:36:16;102057.84;;;11.01;60.65
61394;BME280;48555;50.952;-0.120;2023-01-30T10:38:46;102054.47;;;10.99;60.88
61394;BME280;48555;50.952;-0.120;2023-01-30T10:41:21;102046.22;;;11.06;61.42
61394;BME280;48555;50.952;-0.120;2023-01-30T10:44:08;102045.44;;;11.04;60.18
61394;BME280;48555;50.952;-0.120;2023-01-30T10:47:13;102039.06;;;10.93;60.03
61394;BME280;48555;50.952;-0.120;2023-01-30T10:49:49;102045.41;;;10.88;60.25
61394;BME280;48555;50.952;-0.120;2023-01-30T11:05:41;102033.97;;;11.07;60.51
61394;BME280;48555;50.952;-0.120;2023-01-30T11:08:26;102044.34;;;11.08;59.53
61394;BME280;48555;50.952;-0.120;2023-01-30T11:10:53;102048.28;;;11.00;58.40
61394;BME280;48555;50.952;-0.120;2023-01-30T11:13:27;102044.50;;;11.05;58.91
61394;BME280;48555;50.952;-0.120;2023-01-30T11:15:59;102038.72;;;11.16;59.08
61394;BME280;48555;50.952;-0.120;2023-01-30T11:18:27;102032.13;;;11.09;58.01
61394;BME280;48555;50.952;-0.120;2023-01-30T11:21:19;102045.72;;;11.16;58.02
61394;BME280;48555;50.952;-0.120;2023-01-30T11:23:46;102052.41;;;11.21;57.60
61394;BME280;48555;50.952;-0.120;2023-01-30T11:28:45;102042.59;;;11.09;56.62
61394;BME280;48555;50.952;-0.120;2023-01-30T11:31:20;102045.78;;;11.14;56.85
61394;BME280;48555;50.952;-0.120;2023-01-30T11:34:01;102048.34;;;11.16;56.80
61394;BME280;48555;50.952;-0.120;2023-01-30T11:36:34;102044.81;;;11.32;57.05
61394;BME280;48555;50.952;-0.120;2023-01-30T11:39:09;102049.13;;;11.33;56.88
61394;BME280;48555;50.952;-0.120;2023-01-30T11:44:27;102052.59;;;11.50;55.87
61394;BME280;48555;50.952;-0.120;2023-01-30T11:46:53;102045.22;;;11.25;54.73
61394;BME280;48555;50.952;-0.120;2023-01-30T11:49:22;102048.47;;;11.46;55.64
61394;BME280;48555;50.952;-0.120;2023-01-30T11:51:52;102048.47;;;11.46;54.91
61394;BME280;48555;50.952;-0.120;2023-01-30T11:54:31;102057.31;;;11.27;54.53
61394;BME280;48555;50.952;-0.120;2023-01-30T11:56:58;102057.41;;;11.42;54.36
61394;BME280;48555;50.952;-0.120;2023-01-30T12:02:24;102045.00;;;11.45;54.11
61394;BME280;48555;50.952;-0.120;2023-01-30T12:05:01;102044.13;;;11.29;53.80
61394;BME280;48555;50.952;-0.120;2023-01-30T12:07:33;102029.78;;;11.36;53.44
61394;BME280;48555;50.952;-0.120;2023-01-30T12:09:59;102045.06;;;11.28;53.40
61394;BME280;48555;50.952;-0.120;2023-01-30T12:15:17;102050.56;;;11.39;53.97
61394;BME280;48555;50.952;-0.120;2023-01-30T12:18:09;102046.50;;;11.49;54.12
61394;BME280;48555;50.952;-0.120;2023-01-30T12:20:53;102032.31;;;11.37;53.57
61394;BME280;48555;50.952;-0.120;2023-01-30T12:26:11;102022.19;;;11.47;53.25
61394;BME280;48555;50.952;-0.120;2023-01-30T12:31:15;102041.19;;;11.51;53.70
61394;BME280;48555;50.952;-0.120;2023-01-30T12:33:43;102023.28;;;11.43;53.28
61394;BME280;48555;50.952;-0.120;2023-01-30T12:44:12;102021.75;;;11.71;53.02
61394;BME280;48555;50.952;-0.120;2023-01-30T12:47:06;102039.94;;;11.42;53.24
61394;BME280;48555;50.952;-0.120;2023-01-30T13:00:59;102035.28;;;11.95;51.35
61394;BME280;48555;50.952;-0.120;2023-01-30T13:06:11;102035.28;;;11.95;51.34
61394;BME280;48555;50.952;-0.120;2023-01-30T13:08:52;102033.41;;;11.97;50.90
61394;BME280;48555;50.952;-0.120;2023-01-30T13:20:28;102031.81;;;11.31;51.34
61394;BME280;48555;50.952;-0.120;2023-01-30T13:23:01;102026.28;;;11.04;51.49
61394;BME280;48555;50.952;-0.120;2023-01-30T13:25:41;102032.13;;;11.09;52.06
61394;BME280;48555;50.952;-0.120;2023-01-30T13:28:13;102025.72;;;11.30;51.71
61394;BME280;48555;50.952;-0.120;2023-01-30T13:30:40;102029.06;;;11.17;51.93
61394;BME280;48555;50.952;-0.120;2023-01-30T13:33:17;102027.22;;;11.19;51.93
61394;BME280;48555;50.952;-0.120;2023-01-30T13:35:50;102012.38;;;11.19;51.80
61394;BME280;48555;50.952;-0.120;2023-01-30T13:38:20;102004.56;;;11.18;51.50
61394;BME280;48555;50.952;-0.120;2023-01-30T13:40:48;102011.03;;;11.28;51.34
61394;BME280;48555;50.952;-0.120;2023-01-30T13:43:26;102001.81;;;11.36;51.58
61394;BME280;48555;50.952;-0.120;2023-01-30T13:45:56;101997.56;;;11.50;51.19
61394;BME280;48555;50.952;-0.120;2023-01-30T13:56:54;102014.66;;;11.57;51.62
61394;BME280;48555;50.952;-0.120;2023-01-30T13:59:24;102003.59;;;11.52;50.90
61394;BME280;48555;50.952;-0.120;2023-01-30T14:02:06;102002.41;;;11.57;51.02
61394;BME280;48555;50.952;-0.120;2023-01-30T14:07:29;102001.63;;;11.55;50.58
61394;BME280;48555;50.952;-0.120;2023-01-30T14:15:09;102030.91;;;11.14;51.48
61394;BME280;48555;50.952;-0.120;2023-01-30T14:20:51;102019.31;;;11.36;51.77
61394;BME280;48555;50.952;-0.120;2023-01-30T14:23:33;102020.41;;;11.48;51.73
61394;BME280;48555;50.952;-0.120;2023-01-30T14:25:59;102018.88;;;11.44;51.37
61394;BME280;48555;50.952;-0.120;2023-01-30T14:30:56;102024.97;;;11.44;51.58
61394;BME280;48555;50.952;-0.120;2023-01-30T14:38:39;102037.47;;;11.55;52.14
61394;BME280;48555;50.952;-0.120;2023-01-30T14:43:34;102030.09;;;11.62;51.64
61394;BME280;48555;50.952;-0.120;2023-01-30T14:51:34;102013.81;;;11.56;51.48
61394;BME280;48555;50.952;-0.120;2023-01-30T14:56:45;102028.25;;;11.32;51.39
61394;BME280;48555;50.952;-0.120;2023-01-30T15:02:16;102037.09;;;11.29;52.31
61394;BME280;48555;50.952;-0.120;2023-01-30T15:07:36;102043.44;;;11.41;53.01
61394;BME280;48555;50.952;-0.120;2023-01-30T15:10:04;102036.88;;;11.50;52.59
61394;BME280;48555;50.952;-0.120;2023-01-30T15:18:38;102049.72;;;11.54;52.69
61394;BME280;48555;50.952;-0.120;2023-01-30T15:24:07;102077.88;;;11.51;52.92
61394;BME280;48555;50.952;-0.120;2023-01-30T15:26:56;102088.25;;;11.52;53.28
61394;BME280;48555;50.952;-0.120;2023-01-30T15:32:24;102079.88;;;11.46;53.77
61394;BME280;48555;50.952;-0.120;2023-01-30T15:34:59;102085.97;;;11.46;53.91
61394;BME280;48555;50.952;-0.120;2023-01-30T15:50:51;102094.41;;;11.02;54.48
61394;BME280;48555;50.952;-0.120;2023-01-30T15:53:27;102114.19;;;11.08;54.86
61394;BME280;48555;50.952;-0.120;2023-01-30T15:55:53;102104.47;;;11.10;54.91
61394;BME280;48555;50.952;-0.120;2023-01-30T15:58:20;102108.94;;;11.08;54.99
61394;BME280;48555;50.952;-0.120;2023-01-30T16:00:48;102101.34;;;11.03;55.13
61394;BME280;48555;50.952;-0.120;2023-01-30T16:03:19;102119.41;;;11.08;55.54
61394;BME280;48555;50.952;-0.120;2023-01-30T16:05:51;102124.59;;;11.09;55.56